Time,TemperatureF,DewpointF,PressureIn,WindDirection,WindDirectionDegrees,WindSpeedMPH,WindSpeedGustMPH,Humidity,HourlyPrecipIn,Conditions,Clouds,dailyrainin,SoftwareType,DateUTC
2013-09-25 00:02:00,43.7,42.4,29.61,West,265,15.0,19.0,95,0.02,,---,0.00,VWS V13.00,2013-09-25 06:02:00,
2013-09-25 00:07:00,43.8,42.5,29.62,WSW,257,6.0,10.0,95,0.02,,---,0.00,VWS V13.00,2013-09-25 06:07:00,
2013-09-25 00:12:00,43.9,42.6,29.62,West,266,9.0,13.0,95,0.00,,---,0.00,VWS V13.00,2013-09-25 06:12:00,
2013-09-25 00:17:00,43.8,42.5,29.62,West,260,5.0,13.0,95,0.00,,---,0.00,VWS V13.00,2013-09-25 06:17:00,
2013-09-25 00:22:00,43.8,42.5,29.61,West,264,7.0,13.0,95,0.00,,---,0.00,VWS V13.00,2013-09-25 06:22:00,
2013-09-25 00:27:00,43.9,42.6,29.61,WNW,282,10.0,13.0,95,0.00,,---,0.00,VWS V13.00,2013-09-25 06:27:00,
2013-09-25 00:32:00,43.8,42.5,29.61,West,269,8.0,13.0,95,0.00,,---,0.00,VWS V13.00,2013-09-25 06:32:00,
2013-09-25 00:37:00,43.8,42.5,29.60,West,267,11.0,12.0,95,0.00,,---,0.00,VWS V13.00,2013-09-25 06:37:00,
2013-09-25 00:42:00,43.8,42.5,29.60,West,263,12.0,14.0,95,0.00,,---,0.00,VWS V13.00,2013-09-25 06:42:00,
2013-09-25 00:47:00,43.8,42.5,29.60,West,263,13.0,15.0,95,0.00,,---,0.00,VWS V13.00,2013-09-25 06:47:00,
2013-09-25 00:52:00,43.8,42.2,29.60,West,263,13.0,15.0,94,0.00,,---,0.00,VWS V13.00,2013-09-25 06:52:00,
2013-09-25 00:57:00,43.6,42.0,29.60,West,261,10.0,15.0,94,0.00,,---,0.00,VWS V13.00,2013-09-25 06:57:00,
2013-09-25 01:02:00,43.4,41.8,29.60,WSW,258,5.0,15.0,94,0.00,,---,0.00,VWS V13.00,2013-09-25 07:02:00,
2013-09-25 01:07:00,43.1,41.2,29.59,WSW,251,6.0,9.0,93,0.00,,---,0.00,VWS V13.00,2013-09-25 07:07:00,
2013-09-25 01:12:00,42.8,40.9,29.59,West,259,2.0,9.0,93,0.00,,---,0.00,VWS V13.00,2013-09-25 07:12:00,
2013-09-25 01:17:00,42.5,40.6,29.59,WSW,254,0.0,9.0,93,0.00,,---,0.00,VWS V13.00,2013-09-25 07:17:00,
2013-09-25 01:22:00,42.2,40.3,29.60,WSW,245,0.0,9.0,93,0.00,,---,0.00,VWS V13.00,2013-09-25 07:22:00,
2013-09-25 01:27:00,42.1,40.2,29.60,WSW,246,0.0,9.0,93,0.00,,---,0.00,VWS V13.00,2013-09-25 07:27:00,
2013-09-25 01:32:00,42.1,40.2,29.60,WSW,238,0.0,9.0,93,0.00,,---,0.00,VWS V13.00,2013-09-25 07:32:00,
2013-09-25 01:37:00,42.1,40.2,29.60,WSW,250,0.0,0.0,93,0.00,,---,0.00,VWS V13.00,2013-09-25 07:37:00,
2013-09-25 01:42:00,42.2,40.3,29.60,WSW,249,0.0,0.0,93,0.00,,---,0.00,VWS V13.00,2013-09-25 07:42:00,
2013-09-25 01:47:00,42.2,40.3,29.60,WSW,249,0.0,0.0,93,0.00,,---,0.00,VWS V13.00,2013-09-25 07:47:00,
2013-09-25 01:52:00,42.2,40.3,29.59,WSW,248,0.0,0.0,93,0.00,,---,0.00,VWS V13.00,2013-09-25 07:52:00,
2013-09-25 01:57:00,42.2,40.0,29.59,WSW,246,0.0,0.0,92,0.00,,---,0.00,VWS V13.00,2013-09-25 07:57:00,
2013-09-25 02:02:00,42.1,40.0,29.59,WSW,246,0.0,0.0,92,0.00,,---,0.00,VWS V13.00,2013-09-25 08:02:00,
2013-09-25 02:07:00,42.1,40.0,29.59,WSW,245,0.0,0.0,92,0.00,,---,0.00,VWS V13.00,2013-09-25 08:07:00,
2013-09-25 02:12:00,42.0,39.8,29.59,WSW,246,0.0,0.0,92,0.00,,---,0.00,VWS V13.00,2013-09-25 08:12:00,
2013-09-25 02:17:00,42.0,39.8,29.59,WSW,246,0.0,0.0,92,0.00,,---,0.00,VWS V13.00,2013-09-25 08:17:00,
2013-09-25 02:22:00,42.1,40.0,29.58,WSW,245,0.0,0.0,92,0.00,,---,0.00,VWS V13.00,2013-09-25 08:22:00,
2013-09-25 02:27:00,42.1,40.0,29.58,SW,227,3.0,7.0,92,0.00,,---,0.00,VWS V13.00,2013-09-25 08:27:00,
2013-09-25 02:32:00,42.2,40.0,29.58,SW,236,5.0,7.0,92,0.00,,---,0.00,VWS V13.00,2013-09-25 08:32:00,
2013-09-25 02:37:00,42.1,40.0,29.58,SW,232,5.0,5.0,92,0.00,,---,0.00,VWS V13.00,2013-09-25 08:37:00,
2013-09-25 02:42:00,42.0,39.8,29.58,SW,233,4.0,6.0,92,0.00,,---,0.00,VWS V13.00,2013-09-25 08:42:00,
2013-09-25 02:47:00,41.8,39.7,29.58,SW,233,0.0,6.0,92,0.00,,---,0.00,VWS V13.00,2013-09-25 08:47:00,
2013-09-25 02:52:00,41.7,39.5,29.59,SW,236,2.0,7.0,92,0.00,,---,0.00,VWS V13.00,2013-09-25 08:52:00,
2013-09-25 02:57:00,41.8,39.7,29.59,WSW,245,4.0,7.0,92,0.00,,---,0.00,VWS V13.00,2013-09-25 08:57:00,
2013-09-25 03:02:00,42.0,39.8,29.59,SW,219,0.0,7.0,92,0.00,,---,0.00,VWS V13.00,2013-09-25 09:02:00,
2013-09-25 03:07:00,42.2,40.0,29.61,SW,219,0.0,0.0,92,0.00,,---,0.00,VWS V13.00,2013-09-25 09:07:00,
2013-09-25 03:12:00,42.4,40.2,29.61,SW,221,0.0,0.0,92,0.00,,---,0.00,VWS V13.00,2013-09-25 09:12:00,
2013-09-25 03:17:00,42.6,40.2,29.61,SW,223,0.0,0.0,91,0.00,,---,0.00,VWS V13.00,2013-09-25 09:17:00,
2013-09-25 03:22:00,42.8,40.4,29.61,SW,222,0.0,0.0,91,0.00,,---,0.00,VWS V13.00,2013-09-25 09:22:00,
2013-09-25 03:27:00,43.0,40.6,29.61,SW,223,0.0,0.0,91,0.00,,---,0.00,VWS V13.00,2013-09-25 09:27:00,
2013-09-25 03:32:00,43.2,40.5,29.61,SW,223,0.0,0.0,90,0.00,,---,0.00,VWS V13.00,2013-09-25 09:32:00,
2013-09-25 03:37:00,43.2,40.8,29.61,SW,222,0.0,0.0,91,0.00,,---,0.00,VWS V13.00,2013-09-25 09:37:00,
2013-09-25 03:42:00,43.2,40.5,29.61,SW,223,0.0,0.0,90,0.00,,---,0.00,VWS V13.00,2013-09-25 09:42:00,
2013-09-25 03:47:00,43.2,40.5,29.61,SW,223,0.0,0.0,90,0.00,,---,0.00,VWS V13.00,2013-09-25 09:47:00,
2013-09-25 03:52:00,43.2,40.5,29.62,SW,222,0.0,0.0,90,0.00,,---,0.00,VWS V13.00,2013-09-25 09:52:00,
2013-09-25 03:57:00,43.3,40.6,29.62,SW,223,0.0,0.0,90,0.00,,---,0.00,VWS V13.00,2013-09-25 09:57:00,
2013-09-25 04:02:00,43.3,40.6,29.62,SW,223,0.0,0.0,90,0.00,,---,0.00,VWS V13.00,2013-09-25 10:02:00,
2013-09-25 04:07:00,43.3,40.6,29.62,SW,223,0.0,0.0,90,0.00,,---,0.00,VWS V13.00,2013-09-25 10:07:00,
2013-09-25 04:12:00,43.4,40.7,29.62,SW,222,0.0,0.0,90,0.00,,---,0.00,VWS V13.00,2013-09-25 10:12:00,
2013-09-25 04:17:00,43.4,40.7,29.62,SW,223,0.0,0.0,90,0.00,,---,0.00,VWS V13.00,2013-09-25 10:17:00,
2013-09-25 04:22:00,43.4,40.7,29.62,SW,223,0.0,0.0,90,0.00,,---,0.00,VWS V13.00,2013-09-25 10:22:00,
2013-09-25 04:27:00,43.4,40.7,29.62,SW,223,0.0,0.0,90,0.00,,---,0.00,VWS V13.00,2013-09-25 10:27:00,
2013-09-25 04:32:00,43.4,40.7,29.62,SW,223,0.0,0.0,90,0.00,,---,0.00,VWS V13.00,2013-09-25 10:32:00,
2013-09-25 04:37:00,43.4,41.0,29.62,SW,223,0.0,0.0,91,0.00,,---,0.00,VWS V13.00,2013-09-25 10:37:00,
2013-09-25 04:42:00,43.4,41.0,29.62,SW,223,0.0,0.0,91,0.00,,---,0.00,VWS V13.00,2013-09-25 10:42:00,
2013-09-25 04:48:00,43.3,40.8,29.62,SW,223,0.0,0.0,91,0.00,,---,0.00,VWS V13.00,2013-09-25 10:48:00,
2013-09-25 04:53:00,43.3,40.8,29.64,SW,223,0.0,0.0,91,0.00,,---,0.00,VWS V13.00,2013-09-25 10:53:00,
2013-09-25 04:58:00,43.3,40.8,29.64,SW,225,0.0,0.0,91,0.00,,---,0.00,VWS V13.00,2013-09-25 10:58:00,
2013-09-25 05:03:00,43.4,40.7,29.64,SW,225,0.0,0.0,90,0.00,,---,0.00,VWS V13.00,2013-09-25 11:03:00,
2013-09-25 05:08:00,43.4,40.7,29.63,SW,225,0.0,0.0,90,0.00,,---,0.00,VWS V13.00,2013-09-25 11:08:00,
2013-09-25 05:13:00,43.4,41.0,29.63,SW,225,0.0,0.0,91,0.00,,---,0.00,VWS V13.00,2013-09-25 11:13:00,
2013-09-25 05:18:00,43.3,40.6,29.63,SW,225,0.0,0.0,90,0.00,,---,0.00,VWS V13.00,2013-09-25 11:18:00,
2013-09-25 05:22:00,43.2,40.5,29.62,SW,225,0.0,0.0,90,0.00,,---,0.00,VWS V13.00,2013-09-25 11:22:00,
2013-09-25 05:27:00,43.1,40.4,29.62,SW,225,0.0,0.0,90,0.00,,---,0.00,VWS V13.00,2013-09-25 11:27:00,
2013-09-25 05:32:00,42.9,40.2,29.62,SW,225,0.0,0.0,90,0.00,,---,0.00,VWS V13.00,2013-09-25 11:32:00,
2013-09-25 05:37:00,42.8,40.1,29.62,SW,225,0.0,0.0,90,0.00,,---,0.00,VWS V13.00,2013-09-25 11:37:00,
2013-09-25 05:42:00,42.7,40.3,29.62,WSW,256,6.0,7.0,91,0.00,,---,0.00,VWS V13.00,2013-09-25 11:42:00,
2013-09-25 05:47:00,42.5,39.8,29.62,West,260,4.0,10.0,90,0.00,,---,0.00,VWS V13.00,2013-09-25 11:47:00,
2013-09-25 05:52:00,42.4,39.7,29.64,West,263,0.0,10.0,90,0.00,,---,0.00,VWS V13.00,2013-09-25 11:52:00,
2013-09-25 05:57:00,42.2,39.5,29.64,West,263,0.0,10.0,90,0.00,,---,0.00,VWS V13.00,2013-09-25 11:57:00,
2013-09-25 06:02:00,42.2,39.5,29.64,West,259,5.0,10.0,90,0.00,,---,0.00,VWS V13.00,2013-09-25 12:02:00,
2013-09-25 06:07:00,42.1,39.4,29.65,WSW,257,0.0,0.0,90,0.00,,---,0.00,VWS V13.00,2013-09-25 12:07:00,
2013-09-25 06:12:00,42.1,39.7,29.65,West,260,0.0,0.0,91,0.00,,---,0.00,VWS V13.00,2013-09-25 12:12:00,
2013-09-25 06:17:00,42.2,39.8,29.65,West,263,6.0,7.0,91,0.00,,---,0.00,VWS V13.00,2013-09-25 12:17:00,
2013-09-25 06:22:00,42.3,39.9,29.65,West,259,3.0,7.0,91,0.00,,---,0.00,VWS V13.00,2013-09-25 12:22:00,
2013-09-25 06:27:00,42.4,40.0,29.65,WSW,256,5.0,7.0,91,0.00,,---,0.00,VWS V13.00,2013-09-25 12:27:00,
2013-09-25 06:32:00,42.5,39.8,29.65,WSW,257,3.0,7.0,90,0.00,,---,0.00,VWS V13.00,2013-09-25 12:32:00,
2013-09-25 06:37:00,42.6,40.2,29.63,WSW,254,6.0,6.0,91,0.00,,---,0.00,VWS V13.00,2013-09-25 12:37:00,
2013-09-25 06:42:00,42.6,39.9,29.63,WSW,257,5.0,9.0,90,0.00,,---,0.00,VWS V13.00,2013-09-25 12:42:00,
2013-09-25 06:47:00,42.6,39.9,29.63,West,259,7.0,9.0,90,0.00,,---,0.00,VWS V13.00,2013-09-25 12:47:00,
2013-09-25 06:52:00,42.6,39.9,29.64,West,262,9.0,9.0,90,0.00,,---,0.00,VWS V13.00,2013-09-25 12:52:00,
2013-09-25 06:57:00,42.5,39.8,29.64,West,263,7.0,10.0,90,0.00,,---,0.00,VWS V13.00,2013-09-25 12:57:00,
2013-09-25 07:02:00,42.5,39.8,29.64,West,271,7.0,11.0,90,0.00,,---,0.00,VWS V13.00,2013-09-25 13:02:00,
2013-09-25 07:07:00,42.5,39.8,29.63,West,273,5.0,10.0,90,0.00,,---,0.00,VWS V13.00,2013-09-25 13:07:00,
2013-09-25 07:12:00,42.5,39.8,29.63,WNW,283,9.0,11.0,90,0.00,,---,0.00,VWS V13.00,2013-09-25 13:12:00,
2013-09-25 07:17:00,42.5,39.8,29.63,West,280,10.0,13.0,90,0.00,,---,0.00,VWS V13.00,2013-09-25 13:17:00,
2013-09-25 07:22:00,42.4,39.7,29.63,WNW,284,6.0,13.0,90,0.00,,---,0.00,VWS V13.00,2013-09-25 13:22:00,
2013-09-25 07:27:00,42.5,39.8,29.63,West,274,7.0,13.0,90,0.00,,---,0.00,VWS V13.00,2013-09-25 13:27:00,
2013-09-25 07:32:00,42.5,40.1,29.63,West,264,10.0,13.0,91,0.00,,---,0.00,VWS V13.00,2013-09-25 13:32:00,
2013-09-25 07:37:00,42.5,40.1,29.64,West,264,9.0,9.0,91,0.00,,---,0.00,VWS V13.00,2013-09-25 13:37:00,
2013-09-25 07:42:00,42.5,40.1,29.64,West,269,7.0,11.0,91,0.00,,---,0.00,VWS V13.00,2013-09-25 13:42:00,
2013-09-25 07:47:00,42.6,40.4,29.64,West,274,6.0,11.0,92,0.00,,---,0.00,VWS V13.00,2013-09-25 13:47:00,
2013-09-25 07:52:00,42.7,40.5,29.64,West,275,5.0,13.0,92,0.00,,---,0.00,VWS V13.00,2013-09-25 13:52:00,
2013-09-25 07:57:00,42.8,40.6,29.64,West,273,5.0,13.0,92,0.00,,---,0.00,VWS V13.00,2013-09-25 13:57:00,
2013-09-25 08:02:00,42.8,40.9,29.64,WNW,284,5.0,14.0,93,0.00,,---,0.00,VWS V13.00,2013-09-25 14:02:00,
2013-09-25 08:07:00,42.9,41.0,29.64,WNW,294,11.0,12.0,93,0.00,,---,0.00,VWS V13.00,2013-09-25 14:07:00,
2013-09-25 08:12:00,42.9,41.0,29.64,WNW,286,11.0,13.0,93,0.00,,---,0.00,VWS V13.00,2013-09-25 14:12:00,
2013-09-25 08:17:00,43.0,41.1,29.64,WNW,291,12.0,16.0,93,0.00,,---,0.00,VWS V13.00,2013-09-25 14:17:00,
2013-09-25 08:22:00,43.1,41.2,29.64,WNW,291,8.0,16.0,93,0.00,,---,0.00,VWS V13.00,2013-09-25 14:22:00,
2013-09-25 08:27:00,43.1,41.2,29.64,WNW,292,10.0,17.0,93,0.00,,---,0.00,VWS V13.00,2013-09-25 14:27:00,
2013-09-25 08:32:00,43.1,41.2,29.64,NW,304,13.0,17.0,93,0.00,,---,0.00,VWS V13.00,2013-09-25 14:32:00,
2013-09-25 08:37:00,43.1,41.5,29.64,NW,306,14.0,14.0,94,0.00,,---,0.00,VWS V13.00,2013-09-25 14:37:00,
2013-09-25 08:42:00,43.1,41.5,29.64,WNW,290,10.0,16.0,94,0.00,,---,0.00,VWS V13.00,2013-09-25 14:42:00,
2013-09-25 08:47:00,43.2,41.6,29.64,WNW,286,10.0,16.0,94,0.00,,---,0.00,VWS V13.00,2013-09-25 14:47:00,
2013-09-25 08:52:00,43.2,41.6,29.65,WNW,294,11.0,16.0,94,0.00,,---,0.00,VWS V13.00,2013-09-25 14:52:00,
2013-09-25 08:57:00,43.1,41.2,29.65,WNW,291,10.0,16.0,93,0.00,,---,0.00,VWS V13.00,2013-09-25 14:57:00,
2013-09-25 09:02:00,43.2,41.3,29.65,WNW,298,8.0,16.0,93,0.00,,---,0.00,VWS V13.00,2013-09-25 15:02:00,
2013-09-25 09:07:00,43.3,41.4,29.64,WNW,287,9.0,11.0,93,0.00,,---,0.00,VWS V13.00,2013-09-25 15:07:00,
2013-09-25 09:12:00,43.3,41.4,29.64,WNW,288,7.0,13.0,93,0.00,,---,0.00,VWS V13.00,2013-09-25 15:12:00,
2013-09-25 09:17:00,43.4,41.5,29.64,WNW,296,9.0,13.0,93,0.00,,---,0.00,VWS V13.00,2013-09-25 15:17:00,
2013-09-25 09:22:00,43.5,41.6,29.65,WNW,285,10.0,14.0,93,0.00,,---,0.00,VWS V13.00,2013-09-25 15:22:00,
2013-09-25 09:27:00,43.5,41.3,29.65,North,360,9.0,14.0,92,0.00,,---,0.00,VWS V13.00,2013-09-25 15:27:00,
2013-09-25 09:32:00,43.3,40.8,29.65,WNW,300,5.0,14.0,91,0.00,,---,0.00,VWS V13.00,2013-09-25 15:32:00,
2013-09-25 09:37:00,43.3,40.8,29.66,WNW,294,7.0,7.0,91,0.00,,---,0.00,VWS V13.00,2013-09-25 15:37:00,
2013-09-25 09:42:00,43.3,40.8,29.66,WNW,294,0.0,7.0,91,0.00,,---,0.00,VWS V13.00,2013-09-25 15:42:00,
2013-09-25 09:47:00,43.3,41.1,29.66,WNW,291,10.0,11.0,92,0.00,,---,0.00,VWS V13.00,2013-09-25 15:47:00,
2013-09-25 09:52:00,43.3,40.8,29.67,WNW,283,9.0,11.0,91,0.00,,---,0.00,VWS V13.00,2013-09-25 15:52:00,
2013-09-25 09:57:00,43.3,40.8,29.67,WNW,283,9.0,11.0,91,0.00,,---,0.00,VWS V13.00,2013-09-25 15:57:00,
2013-09-25 10:02:00,43.3,40.8,29.67,WNW,284,6.0,11.0,91,0.00,,---,0.00,VWS V13.00,2013-09-25 16:02:00,
2013-09-25 10:07:00,43.2,40.8,29.67,WNW,302,6.0,6.0,91,0.00,,---,0.00,VWS V13.00,2013-09-25 16:07:00,
2013-09-25 10:12:00,43.2,40.8,29.67,WNW,299,4.0,9.0,91,0.00,,---,0.00,VWS V13.00,2013-09-25 16:12:00,
2013-09-25 10:17:00,43.1,40.7,29.67,WNW,295,6.0,10.0,91,0.00,,---,0.00,VWS V13.00,2013-09-25 16:17:00,
2013-09-25 10:22:00,43.1,40.7,29.67,WNW,300,6.0,10.0,91,0.00,,---,0.00,VWS V13.00,2013-09-25 16:22:00,
2013-09-25 10:27:00,43.2,41.0,29.67,WNW,293,9.0,10.0,92,0.00,,---,0.00,VWS V13.00,2013-09-25 16:27:00,
2013-09-25 10:32:00,43.4,41.2,29.67,WNW,284,7.0,10.0,92,0.00,,---,0.00,VWS V13.00,2013-09-25 16:32:00,
2013-09-25 10:37:00,43.7,41.2,29.67,WNW,294,6.0,7.0,91,0.00,,---,0.00,VWS V13.00,2013-09-25 16:37:00,
2013-09-25 10:42:00,43.7,40.7,29.67,WNW,301,3.0,10.0,89,0.00,,---,0.00,VWS V13.00,2013-09-25 16:42:00,
2013-09-25 10:47:00,43.9,41.2,29.67,WNW,298,9.0,10.0,90,0.00,,---,0.00,VWS V13.00,2013-09-25 16:47:00,
2013-09-25 10:52:00,43.8,40.8,29.67,NW,310,9.0,12.0,89,0.00,,---,0.00,VWS V13.00,2013-09-25 16:52:00,
2013-09-25 10:57:00,43.8,40.5,29.67,NW,304,6.0,12.0,88,0.00,,---,0.00,VWS V13.00,2013-09-25 16:57:00,
2013-09-25 11:02:00,43.8,40.8,29.67,WNW,299,9.0,12.0,89,0.00,,---,0.00,VWS V13.00,2013-09-25 17:02:00,
2013-09-25 11:07:00,43.8,40.8,29.68,NW,319,8.0,9.0,89,0.00,,---,0.00,VWS V13.00,2013-09-25 17:07:00,
2013-09-25 11:12:00,43.8,40.8,29.68,NW,314,10.0,11.0,89,0.00,,---,0.00,VWS V13.00,2013-09-25 17:12:00,
2013-09-25 11:17:00,43.7,40.7,29.68,NW,313,6.0,11.0,89,0.00,,---,0.00,VWS V13.00,2013-09-25 17:17:00,
2013-09-25 11:22:00,43.6,40.6,29.68,NW,322,9.0,11.0,89,0.00,,---,0.00,VWS V13.00,2013-09-25 17:22:00,
2013-09-25 11:27:00,43.5,40.8,29.68,WNW,300,9.0,11.0,90,0.00,,---,0.00,VWS V13.00,2013-09-25 17:27:00,
2013-09-25 11:32:00,43.3,40.3,29.68,WNW,303,5.0,11.0,89,0.00,,---,0.00,VWS V13.00,2013-09-25 17:32:00,
2013-09-25 11:37:00,43.2,40.5,29.68,NW,305,5.0,6.0,90,0.00,,---,0.00,VWS V13.00,2013-09-25 17:37:00,
2013-09-25 11:42:00,43.3,40.6,29.68,NW,304,5.0,7.0,90,0.00,,---,0.00,VWS V13.00,2013-09-25 17:42:00,
2013-09-25 11:47:00,43.3,40.6,29.68,NW,306,6.0,8.0,90,0.00,,---,0.00,VWS V13.00,2013-09-25 17:47:00,
2013-09-25 11:52:00,43.4,40.7,29.67,NW,307,7.0,9.0,90,0.00,,---,0.00,VWS V13.00,2013-09-25 17:52:00,
2013-09-25 11:57:00,43.5,41.0,29.67,WNW,298,6.0,10.0,91,0.00,,---,0.00,VWS V13.00,2013-09-25 17:57:00,
2013-09-25 12:02:00,43.5,40.8,29.67,WNW,291,7.0,10.0,90,0.00,,---,0.00,VWS V13.00,2013-09-25 18:02:00,
2013-09-25 12:07:00,43.4,41.0,29.67,WNW,292,5.0,5.0,91,0.00,,---,0.00,VWS V13.00,2013-09-25 18:07:00,
2013-09-25 12:12:00,43.5,41.0,29.67,WNW,296,0.0,6.0,91,0.00,,---,0.00,VWS V13.00,2013-09-25 18:12:00,
2013-09-25 12:17:00,43.6,41.4,29.67,WNW,295,0.0,6.0,92,0.00,,---,0.00,VWS V13.00,2013-09-25 18:17:00,
2013-09-25 12:22:00,43.7,41.5,29.65,WNW,288,6.0,7.0,92,0.00,,---,0.00,VWS V13.00,2013-09-25 18:22:00,
2013-09-25 12:27:00,43.8,41.3,29.65,WNW,283,3.0,7.0,91,0.00,,---,0.00,VWS V13.00,2013-09-25 18:27:00,
2013-09-25 12:32:00,43.8,41.3,29.65,WNW,284,5.0,9.0,91,0.00,,---,0.00,VWS V13.00,2013-09-25 18:32:00,
2013-09-25 12:37:00,43.7,41.2,29.65,West,273,5.0,9.0,91,0.00,,---,0.00,VWS V13.00,2013-09-25 18:37:00,
2013-09-25 12:42:00,43.9,41.7,29.65,WNW,286,6.0,9.0,92,0.00,,---,0.00,VWS V13.00,2013-09-25 18:42:00,
2013-09-25 12:47:00,44.0,41.5,29.65,WNW,284,4.0,9.0,91,0.00,,---,0.00,VWS V13.00,2013-09-25 18:47:00,
2013-09-25 12:52:00,44.1,41.7,29.66,WNW,294,5.0,10.0,91,0.00,,---,0.00,VWS V13.00,2013-09-25 18:52:00,
2013-09-25 12:57:00,44.1,41.9,29.66,WNW,292,6.0,10.0,92,0.00,,---,0.00,VWS V13.00,2013-09-25 18:57:00,
2013-09-25 13:02:00,44.2,42.0,29.66,West,279,0.0,10.0,92,0.00,,---,0.00,VWS V13.00,2013-09-25 19:02:00,
2013-09-25 13:07:00,44.4,42.2,29.65,WNW,290,0.0,10.0,92,0.00,,---,0.00,VWS V13.00,2013-09-25 19:07:00,
2013-09-25 13:12:00,44.3,41.8,29.65,WNW,295,0.0,0.0,91,0.00,,---,0.00,VWS V13.00,2013-09-25 19:12:00,
2013-09-25 13:17:00,44.4,41.7,29.65,WNW,300,0.0,0.0,90,0.00,,---,0.00,VWS V13.00,2013-09-25 19:17:00,
2013-09-25 13:22:00,44.5,41.8,29.65,WNW,295,0.0,0.0,90,0.00,,---,0.00,VWS V13.00,2013-09-25 19:22:00,
2013-09-25 13:27:00,44.7,42.2,29.65,WNW,302,0.0,0.0,91,0.00,,---,0.00,VWS V13.00,2013-09-25 19:27:00,
2013-09-25 13:32:00,44.7,42.2,29.65,WNW,287,0.0,0.0,91,0.00,,---,0.00,VWS V13.00,2013-09-25 19:32:00,
2013-09-25 13:37:00,44.6,42.1,29.65,West,281,0.0,0.0,91,0.00,,---,0.00,VWS V13.00,2013-09-25 19:37:00,
2013-09-25 13:42:00,44.4,41.9,29.65,West,276,0.0,0.0,91,0.00,,---,0.00,VWS V13.00,2013-09-25 19:42:00,
2013-09-25 13:47:00,44.2,41.7,29.65,WNW,288,0.0,0.0,91,0.00,,---,0.00,VWS V13.00,2013-09-25 19:47:00,
2013-09-25 13:52:00,44.2,42.0,29.65,West,281,0.0,0.0,92,0.00,,---,0.00,VWS V13.00,2013-09-25 19:52:00,
2013-09-25 13:57:00,44.4,42.5,29.65,WNW,284,0.0,0.0,93,0.00,,---,0.00,VWS V13.00,2013-09-25 19:57:00,
2013-09-25 14:02:00,44.7,42.8,29.65,West,279,0.0,0.0,93,0.00,,---,0.00,VWS V13.00,2013-09-25 20:02:00,
2013-09-25 14:07:00,45.0,42.8,29.65,West,281,0.0,0.0,92,0.00,,---,0.00,VWS V13.00,2013-09-25 20:07:00,
2013-09-25 14:12:00,45.1,42.6,29.65,WNW,300,0.0,0.0,91,0.00,,---,0.00,VWS V13.00,2013-09-25 20:12:00,
2013-09-25 14:17:00,44.9,42.2,29.65,WNW,294,0.0,0.0,90,0.00,,---,0.00,VWS V13.00,2013-09-25 20:17:00,
2013-09-25 14:22:00,44.6,42.1,29.64,WNW,302,0.0,0.0,91,0.00,,---,0.00,VWS V13.00,2013-09-25 20:22:00,
2013-09-25 14:27:00,44.7,42.5,29.64,WNW,288,0.0,0.0,92,0.00,,---,0.00,VWS V13.00,2013-09-25 20:27:00,
2013-09-25 14:32:00,44.6,42.4,29.64,NW,311,0.0,0.0,92,0.00,,---,0.00,VWS V13.00,2013-09-25 20:32:00,
2013-09-25 14:37:00,44.5,42.3,29.64,WNW,302,0.0,0.0,92,0.00,,---,0.00,VWS V13.00,2013-09-25 20:37:00,
2013-09-25 14:42:00,44.6,42.4,29.64,WNW,302,0.0,0.0,92,0.00,,---,0.00,VWS V13.00,2013-09-25 20:42:00,
2013-09-25 14:47:00,44.6,42.4,29.64,WNW,292,0.0,0.0,92,0.00,,---,0.00,VWS V13.00,2013-09-25 20:47:00,
2013-09-25 14:52:00,44.3,42.1,29.65,WNW,302,0.0,0.0,92,0.00,,---,0.00,VWS V13.00,2013-09-25 20:52:00,
2013-09-25 14:57:00,44.1,41.7,29.65,WNW,298,0.0,0.0,91,0.00,,---,0.00,VWS V13.00,2013-09-25 20:57:00,
2013-09-25 15:02:00,44.0,41.5,29.65,WNW,296,0.0,0.0,91,0.00,,---,0.00,VWS V13.00,2013-09-25 21:02:00,
2013-09-25 15:07:00,44.0,41.8,29.65,WNW,291,0.0,0.0,92,0.00,,---,0.00,VWS V13.00,2013-09-25 21:07:00,
2013-09-25 15:12:00,43.9,41.7,29.65,NW,308,0.0,0.0,92,0.00,,---,0.00,VWS V13.00,2013-09-25 21:12:00,
2013-09-25 15:17:00,43.8,41.6,29.65,NW,310,0.0,0.0,92,0.00,,---,0.00,VWS V13.00,2013-09-25 21:17:00,
2013-09-25 15:22:00,43.9,41.7,29.65,WNW,289,0.0,0.0,92,0.00,,---,0.00,VWS V13.00,2013-09-25 21:22:00,
2013-09-25 15:27:00,43.8,41.6,29.65,WNW,298,0.0,0.0,92,0.00,,---,0.00,VWS V13.00,2013-09-25 21:27:00,
2013-09-25 15:32:00,43.7,41.5,29.65,WNW,292,0.0,0.0,92,0.00,,---,0.00,VWS V13.00,2013-09-25 21:32:00,
2013-09-25 15:37:00,43.7,41.8,29.65,WNW,292,0.0,0.0,93,0.00,,---,0.00,VWS V13.00,2013-09-25 21:37:00,
2013-09-25 15:42:00,43.6,41.7,29.65,WNW,295,0.0,0.0,93,0.00,,---,0.00,VWS V13.00,2013-09-25 21:42:00,
2013-09-25 15:47:00,43.7,41.8,29.65,WNW,291,0.0,0.0,93,0.00,,---,0.00,VWS V13.00,2013-09-25 21:47:00,
2013-09-25 15:52:00,43.7,41.8,29.66,NW,309,0.0,0.0,93,0.00,,---,0.00,VWS V13.00,2013-09-25 21:52:00,
2013-09-25 15:57:00,43.7,42.1,29.66,WNW,300,0.0,0.0,94,0.00,,---,0.00,VWS V13.00,2013-09-25 21:57:00,
2013-09-25 16:02:00,43.7,42.1,29.66,WNW,301,0.0,0.0,94,0.00,,---,0.00,VWS V13.00,2013-09-25 22:02:00,
2013-09-25 16:07:00,43.7,42.1,29.66,WNW,298,0.0,0.0,94,0.00,,---,0.00,VWS V13.00,2013-09-25 22:07:00,
2013-09-25 16:12:00,43.6,42.0,29.66,WNW,294,0.0,0.0,94,0.00,,---,0.00,VWS V13.00,2013-09-25 22:12:00,
2013-09-25 16:17:00,43.7,42.1,29.66,WNW,294,0.0,0.0,94,0.00,,---,0.00,VWS V13.00,2013-09-25 22:17:00,
2013-09-25 16:22:00,43.7,42.1,29.66,WNW,300,0.0,0.0,94,0.00,,---,0.00,VWS V13.00,2013-09-25 22:22:00,
2013-09-25 16:27:00,43.8,42.2,29.66,WNW,303,0.0,0.0,94,0.00,,---,0.00,VWS V13.00,2013-09-25 22:27:00,
2013-09-25 16:32:00,43.9,42.3,29.66,WNW,303,0.0,0.0,94,0.00,,---,0.00,VWS V13.00,2013-09-25 22:32:00,
2013-09-25 16:37:00,44.1,42.5,29.66,WNW,301,0.0,0.0,94,0.00,,---,0.00,VWS V13.00,2013-09-25 22:37:00,
2013-09-25 16:42:00,44.1,42.5,29.66,WNW,300,0.0,0.0,94,0.00,,---,0.00,VWS V13.00,2013-09-25 22:42:00,
2013-09-25 16:47:00,44.1,42.5,29.66,WNW,301,0.0,0.0,94,0.00,,---,0.00,VWS V13.00,2013-09-25 22:47:00,
2013-09-25 16:52:00,44.1,42.5,29.66,WNW,301,0.0,0.0,94,0.00,,---,0.00,VWS V13.00,2013-09-25 22:52:00,
2013-09-25 16:57:00,44.1,42.5,29.66,WNW,302,0.0,0.0,94,0.00,,---,0.00,VWS V13.00,2013-09-25 22:57:00,
2013-09-25 17:02:00,44.1,42.5,29.66,WNW,302,0.0,0.0,94,0.00,,---,0.00,VWS V13.00,2013-09-25 23:02:00,
2013-09-25 17:07:00,44.1,42.5,29.66,WNW,302,0.0,0.0,94,0.00,,---,0.00,VWS V13.00,2013-09-25 23:07:00,
2013-09-25 17:12:00,44.0,42.4,29.66,WNW,302,0.0,0.0,94,0.00,,---,0.00,VWS V13.00,2013-09-25 23:12:00,
2013-09-25 17:17:00,44.0,42.4,29.66,WNW,302,0.0,0.0,94,0.00,,---,0.00,VWS V13.00,2013-09-25 23:17:00,
2013-09-25 17:22:00,44.1,42.5,29.66,WNW,302,0.0,0.0,94,0.00,,---,0.00,VWS V13.00,2013-09-25 23:22:00,
2013-09-25 17:27:00,44.0,42.4,29.66,WNW,302,0.0,0.0,94,0.01,,---,0.01,VWS V13.00,2013-09-25 23:27:00,
2013-09-25 17:32:00,43.9,42.6,29.66,WNW,302,0.0,0.0,95,0.01,,---,0.01,VWS V13.00,2013-09-25 23:32:00,
2013-09-25 17:37:00,43.9,42.6,29.66,WNW,302,0.0,0.0,95,0.01,,---,0.01,VWS V13.00,2013-09-25 23:37:00,
2013-09-25 17:42:00,44.0,42.7,29.66,WNW,302,0.0,0.0,95,0.01,,---,0.01,VWS V13.00,2013-09-25 23:42:00,
2013-09-25 17:47:00,44.0,42.7,29.66,NW,308,0.0,0.0,95,0.01,,---,0.01,VWS V13.00,2013-09-25 23:47:00,
2013-09-25 17:52:00,44.0,42.7,29.66,NW,320,0.0,0.0,95,0.01,,---,0.01,VWS V13.00,2013-09-25 23:52:00,
2013-09-25 17:57:00,44.0,42.7,29.66,NW,320,0.0,0.0,95,0.01,,---,0.01,VWS V13.00,2013-09-25 23:57:00,
2013-09-25 18:02:00,44.0,42.7,29.66,NW,319,0.0,0.0,95,0.01,,---,0.01,VWS V13.00,2013-09-26 00:02:00,
2013-09-25 18:07:00,44.0,42.7,29.68,NW,320,0.0,0.0,95,0.01,,---,0.01,VWS V13.00,2013-09-26 00:07:00,
2013-09-25 18:12:00,44.0,42.7,29.68,NW,319,0.0,0.0,95,0.01,,---,0.01,VWS V13.00,2013-09-26 00:12:00,
2013-09-25 18:17:00,44.0,42.7,29.68,NW,320,0.0,0.0,95,0.01,,---,0.01,VWS V13.00,2013-09-26 00:17:00,
2013-09-25 18:22:00,44.0,42.7,29.68,NW,319,0.0,0.0,95,0.01,,---,0.02,VWS V13.00,2013-09-26 00:22:00,
2013-09-25 18:27:00,44.0,42.7,29.68,NW,320,0.0,0.0,95,0.02,,---,0.02,VWS V13.00,2013-09-26 00:27:00,
2013-09-25 18:32:00,44.0,42.7,29.68,NW,319,0.0,0.0,95,0.03,,---,0.03,VWS V13.00,2013-09-26 00:32:00,
2013-09-25 18:37:00,43.9,42.6,29.68,NW,320,0.0,0.0,95,0.04,,---,0.04,VWS V13.00,2013-09-26 00:37:00,
2013-09-25 18:42:00,43.9,42.6,29.68,NW,320,0.0,0.0,95,0.03,,---,0.04,VWS V13.00,2013-09-26 00:42:00,
2013-09-25 18:47:00,43.8,42.5,29.68,NW,319,0.0,0.0,95,0.04,,---,0.05,VWS V13.00,2013-09-26 00:47:00,
2013-09-25 18:52:00,43.7,42.4,29.68,NW,320,0.0,0.0,95,0.05,,---,0.06,VWS V13.00,2013-09-26 00:52:00,
2013-09-25 18:57:00,43.7,42.4,29.68,NW,319,0.0,0.0,95,0.06,,---,0.07,VWS V13.00,2013-09-26 00:57:00,
2013-09-25 19:02:00,43.7,42.4,29.68,NW,320,0.0,0.0,95,0.07,,---,0.08,VWS V13.00,2013-09-26 01:02:00,
2013-09-25 19:07:00,43.6,42.3,29.69,NW,320,0.0,0.0,95,0.08,,---,0.09,VWS V13.00,2013-09-26 01:07:00,
2013-09-25 19:12:00,43.6,42.3,29.69,NW,320,0.0,0.0,95,0.08,,---,0.09,VWS V13.00,2013-09-26 01:12:00,
2013-09-25 19:17:00,43.6,42.3,29.69,NW,320,0.0,0.0,95,0.08,,---,0.09,VWS V13.00,2013-09-26 01:17:00,
2013-09-25 19:22:00,43.6,42.3,29.69,NW,319,0.0,0.0,95,0.09,,---,0.10,VWS V13.00,2013-09-26 01:22:00,
2013-09-25 19:27:00,43.6,42.3,29.69,NW,319,0.0,0.0,95,0.09,,---,0.10,VWS V13.00,2013-09-26 01:27:00,
2013-09-25 19:32:00,43.6,42.3,29.69,NW,320,0.0,0.0,95,0.09,,---,0.10,VWS V13.00,2013-09-26 01:32:00,
2013-09-25 19:37:00,43.6,42.3,29.69,NW,320,0.0,0.0,95,0.09,,---,0.10,VWS V13.00,2013-09-26 01:37:00,
2013-09-25 19:43:00,43.5,42.2,29.69,NW,320,0.0,0.0,95,0.07,,---,0.11,VWS V13.00,2013-09-26 01:43:00,
2013-09-25 19:48:00,43.5,42.2,29.69,NW,319,0.0,0.0,95,0.07,,---,0.11,VWS V13.00,2013-09-26 01:48:00,
2013-09-25 19:53:00,43.5,42.2,29.69,NW,320,0.0,0.0,95,0.07,,---,0.11,VWS V13.00,2013-09-26 01:53:00,
2013-09-25 19:58:00,43.5,42.2,29.69,NW,320,0.0,0.0,95,0.07,,---,0.11,VWS V13.00,2013-09-26 01:58:00,
2013-09-25 20:03:00,43.5,42.2,29.69,NW,319,0.0,0.0,95,0.07,,---,0.11,VWS V13.00,2013-09-26 02:03:00,
2013-09-25 20:08:00,43.5,42.4,29.69,NW,320,0.0,0.0,96,0.07,,---,0.11,VWS V13.00,2013-09-26 02:08:00,
2013-09-25 20:13:00,43.5,42.4,29.69,NW,319,0.0,0.0,96,0.02,,---,0.11,VWS V13.00,2013-09-26 02:13:00,
2013-09-25 20:18:00,43.5,42.4,29.69,NW,320,0.0,0.0,96,0.02,,---,0.11,VWS V13.00,2013-09-26 02:18:00,
2013-09-25 20:23:00,43.5,42.4,29.70,NW,319,0.0,0.0,96,0.02,,---,0.11,VWS V13.00,2013-09-26 02:23:00,
2013-09-25 20:28:00,43.4,42.3,29.70,NW,320,0.0,0.0,96,0.03,,---,0.12,VWS V13.00,2013-09-26 02:28:00,
2013-09-25 20:33:00,43.4,42.1,29.70,NW,319,0.0,0.0,95,0.03,,---,0.12,VWS V13.00,2013-09-26 02:33:00,
2013-09-25 20:38:00,43.3,42.0,29.70,NW,320,0.0,0.0,95,0.02,,---,0.12,VWS V13.00,2013-09-26 02:38:00,
2013-09-25 20:43:00,43.3,42.0,29.70,NW,319,0.0,0.0,95,0.02,,---,0.12,VWS V13.00,2013-09-26 02:43:00,
2013-09-25 20:48:00,43.3,42.0,29.70,NW,320,0.0,0.0,95,0.02,,---,0.12,VWS V13.00,2013-09-26 02:48:00,
2013-09-25 20:53:00,43.2,41.9,29.70,NW,319,0.0,0.0,95,0.02,,---,0.12,VWS V13.00,2013-09-26 02:53:00,
2013-09-25 20:58:00,43.2,41.9,29.70,North,11,0.0,0.0,95,0.02,,---,0.12,VWS V13.00,2013-09-26 02:58:00,
2013-09-25 21:03:00,43.1,41.8,29.70,NNE,19,0.0,0.0,95,0.02,,---,0.12,VWS V13.00,2013-09-26 03:03:00,
2013-09-25 21:08:00,42.9,41.6,29.69,NNE,25,0.0,0.0,95,0.01,,---,0.12,VWS V13.00,2013-09-26 03:08:00,
2013-09-25 21:13:00,42.8,41.5,29.69,NNE,24,0.0,0.0,95,0.01,,---,0.12,VWS V13.00,2013-09-26 03:13:00,
2013-09-25 21:18:00,42.7,41.4,29.69,NE,36,0.0,0.0,95,0.01,,---,0.12,VWS V13.00,2013-09-26 03:18:00,
2013-09-25 21:23:00,42.5,40.9,29.68,NNE,32,0.0,0.0,94,0.01,,---,0.12,VWS V13.00,2013-09-26 03:23:00,
2013-09-25 21:28:00,42.5,40.9,29.68,NE,35,0.0,0.0,94,0.01,,---,0.12,VWS V13.00,2013-09-26 03:28:00,
2013-09-25 21:33:00,42.4,40.5,29.68,NE,34,0.0,0.0,93,0.01,,---,0.12,VWS V13.00,2013-09-26 03:33:00,
2013-09-25 21:38:00,42.3,40.4,29.70,NNE,28,0.0,0.0,93,0.00,,---,0.12,VWS V13.00,2013-09-26 03:38:00,
2013-09-25 21:43:00,42.3,40.4,29.70,NE,37,0.0,0.0,93,0.00,,---,0.12,VWS V13.00,2013-09-26 03:43:00,
2013-09-25 21:48:00,42.1,40.2,29.70,NNE,33,0.0,0.0,93,0.00,,---,0.12,VWS V13.00,2013-09-26 03:48:00,
2013-09-25 21:53:00,42.0,40.1,29.70,NNE,27,0.0,0.0,93,0.00,,---,0.12,VWS V13.00,2013-09-26 03:53:00,
2013-09-25 21:58:00,42.0,40.1,29.70,NNE,30,0.0,0.0,93,0.00,,---,0.12,VWS V13.00,2013-09-26 03:58:00,
2013-09-25 22:01:00,41.9,40.0,29.70,NE,45,0.0,0.0,93,0.00,,---,0.12,VWS V13.00,2013-09-26 04:01:00,
2013-09-25 22:02:00,41.8,39.9,29.70,NE,51,0.0,0.0,93,0.00,,---,0.12,VWS V13.00,2013-09-26 04:02:00,
2013-09-25 22:07:00,41.7,39.8,29.70,NE,38,0.0,0.0,93,0.00,,---,0.12,VWS V13.00,2013-09-26 04:07:00,
2013-09-25 22:12:00,41.6,39.7,29.70,NNE,17,0.0,0.0,93,0.00,,---,0.12,VWS V13.00,2013-09-26 04:12:00,
2013-09-25 22:17:00,41.4,39.5,29.70,NNE,19,0.0,0.0,93,0.00,,---,0.12,VWS V13.00,2013-09-26 04:17:00,
2013-09-25 22:22:00,41.3,39.4,29.71,North,11,0.0,0.0,93,0.00,,---,0.12,VWS V13.00,2013-09-26 04:22:00,
2013-09-25 22:27:00,41.1,39.2,29.71,NNE,20,0.0,0.0,93,0.00,,---,0.12,VWS V13.00,2013-09-26 04:27:00,
2013-09-25 22:32:00,41.1,39.2,29.71,NNE,22,0.0,0.0,93,0.00,,---,0.12,VWS V13.00,2013-09-26 04:32:00,
2013-09-25 22:37:00,41.0,39.1,29.71,NNE,29,0.0,0.0,93,0.00,,---,0.12,VWS V13.00,2013-09-26 04:37:00,
2013-09-25 22:42:00,41.0,39.1,29.71,NNE,28,0.0,0.0,93,0.00,,---,0.12,VWS V13.00,2013-09-26 04:42:00,
2013-09-25 22:47:00,40.9,39.0,29.71,NNE,22,0.0,0.0,93,0.00,,---,0.12,VWS V13.00,2013-09-26 04:47:00,
2013-09-25 22:52:00,40.8,38.9,29.72,NNE,22,0.0,0.0,93,0.00,,---,0.12,VWS V13.00,2013-09-26 04:52:00,
2013-09-25 22:57:00,40.7,38.8,29.72,NNE,21,0.0,0.0,93,0.01,,---,0.13,VWS V13.00,2013-09-26 04:57:00,
2013-09-25 23:02:00,40.6,38.7,29.72,NNE,21,0.0,0.0,93,0.01,,---,0.13,VWS V13.00,2013-09-26 05:02:00,
2013-09-25 23:07:00,40.6,39.0,29.72,NNE,21,0.0,0.0,94,0.01,,---,0.13,VWS V13.00,2013-09-26 05:07:00,
2013-09-25 23:12:00,40.5,38.9,29.72,NNE,21,0.0,0.0,94,0.01,,---,0.13,VWS V13.00,2013-09-26 05:12:00,
2013-09-25 23:17:00,40.4,38.8,29.72,NNE,20,0.0,0.0,94,0.02,,---,0.14,VWS V13.00,2013-09-26 05:17:00,
2013-09-25 23:22:00,40.2,38.6,29.73,NNE,17,0.0,0.0,94,0.02,,---,0.14,VWS V13.00,2013-09-26 05:22:00,
2013-09-25 23:27:00,40.1,38.5,29.73,NNE,17,0.0,0.0,94,0.02,,---,0.14,VWS V13.00,2013-09-26 05:27:00,
2013-09-25 23:32:00,40.1,38.5,29.73,NNE,17,0.0,0.0,94,0.03,,---,0.15,VWS V13.00,2013-09-26 05:32:00,
2013-09-25 23:37:00,40.0,38.4,29.73,NNE,17,0.0,0.0,94,0.04,,---,0.00,VWS V13.00,2013-09-26 05:37:00,
2013-09-25 23:42:00,40.0,38.4,29.73,NNE,16,0.0,0.0,94,0.04,,---,0.00,VWS V13.00,2013-09-26 05:42:00,
2013-09-25 23:47:00,39.9,38.3,29.73,NNE,16,0.0,0.0,94,0.05,,---,0.01,VWS V13.00,2013-09-26 05:47:00,
2013-09-25 23:52:00,39.9,38.3,29.72,North,355,0.0,0.0,94,0.05,,---,0.01,VWS V13.00,2013-09-26 05:52:00,
2013-09-25 23:57:00,39.8,38.2,29.72,North,355,0.0,0.0,94,0.05,,---,0.01,VWS V13.00,2013-09-26 05:57:00,